Time;durP1;ratioP1;P1;durP2;ratioP2;P2;SDS_P1;SDS_P2;PMS_P1;PMS_P2;Temp;Humidity;BMP_temperature;BMP_pressure;BME280_temperature;BME280_humidity;BME280_pressure;Samples;Min_cycle;Max_cycle;Signal;HPM_P1;HPM_P2
2022/06/18 00:00:59;;;;;;;8.05;7.35;;;;;;;19.84;64.51;94960.94;4207263;28;20106;-56
2022/06/18 00:03:01;;;;;;;11.40;8.10;;;;;;;19.82;64.53;94963.78;4218257;28;20486;-57
2022/06/18 00:05:03;;;;;;;9.82;8.23;;;;;;;19.82;64.29;94960.31;4217235;28;20226;-56
2022/06/18 00:07:06;;;;;;;11.23;8.27;;;;;;;19.79;64.43;94955.44;4207924;28;20082;-54
2022/06/18 00:09:11;;;;;;;9.38;8.07;;;;;;;19.75;64.58;94965.66;4202178;28;20148;-54
2022/06/18 00:13:42;;;;;;;8.70;7.80;;;;;;;19.67;64.90;94960.53;4204730;28;20050;-55
2022/06/18 00:15:43;;;;;;;8.60;7.70;;;;;;;19.63;64.80;94954.00;4201459;28;20044;-56
2022/06/18 00:17:46;;;;;;;9.23;8.32;;;;;;;19.50;65.51;94949.53;4208072;28;20127;-56
2022/06/18 00:19:49;;;;;;;11.00;7.97;;;;;;;19.40;65.65;94946.50;4208274;28;20216;-54
2022/06/18 00:21:51;;;;;;;13.77;8.60;;;;;;;19.27;65.82;94955.31;4208480;28;20439;-55
2022/06/18 00:23:53;;;;;;;10.35;8.65;;;;;;;19.12;66.49;94958.22;4210105;28;20063;-55
2022/06/18 00:25:54;;;;;;;12.32;8.60;;;;;;;18.73;67.95;94951.81;4200668;28;20072;-55
2022/06/18 00:27:56;;;;;;;9.85;8.80;;;;;;;18.54;68.97;94948.16;4208216;28;20064;-56
2022/06/18 00:29:58;;;;;;;11.40;9.00;;;;;;;18.39;69.54;94945.69;4211654;28;20081;-55
2022/06/18 00:32:00;;;;;;;13.20;9.38;;;;;;;18.33;69.92;94938.53;4208514;28;20048;-56
2022/06/18 00:34:01;;;;;;;11.80;8.70;;;;;;;18.27;69.79;94934.03;4207457;28;20056;-54
2022/06/18 00:36:04;;;;;;;9.73;8.68;;;;;;;18.13;70.53;94935.00;4196474;28;20131;-53
2022/06/18 00:38:07;;;;;;;11.40;9.52;;;;;;;18.18;70.43;94936.03;4197789;28;20044;-55
2022/06/18 00:40:22;;;;;;;10.27;9.10;;;;;;;18.17;70.48;94938.88;4205780;28;20052;-53
2022/06/18 00:42:27;;;;;;;10.80;9.68;;;;;;;18.32;70.31;94931.56;4206932;28;20063;-55
2022/06/18 00:44:33;;;;;;;13.13;9.63;;;;;;;18.53;69.49;94943.03;4198527;28;20044;-55
2022/06/18 00:46:40;;;;;;;9.80;8.80;;;;;;;18.72;68.75;94928.16;4200431;28;20048;-54
2022/06/18 00:48:51;;;;;;;10.07;9.00;;;;;;;18.89;68.05;94933.91;4210290;28;20085;-57
2022/06/18 00:50:57;;;;;;;10.40;8.10;;;;;;;19.00;67.17;94927.97;4205732;28;20105;-55
2022/06/18 00:53:09;;;;;;;10.63;8.63;;;;;;;19.07;66.71;94933.28;4215116;28;20109;-54
2022/06/18 00:55:28;;;;;;;10.82;7.95;;;;;;;19.14;66.31;94929.56;4206127;28;20168;-57
2022/06/18 00:57:36;;;;;;;9.15;8.10;;;;;;;19.20;66.14;94934.06;4207864;28;20493;-55
2022/06/18 00:59:47;;;;;;;10.80;7.70;;;;;;;19.22;65.50;94937.34;4192451;28;20044;-55
2022/06/18 01:01:49;;;;;;;9.73;7.55;;;;;;;19.19;65.65;94937.75;4215580;28;20047;-54
2022/06/18 01:03:51;;;;;;;8.20;7.40;;;;;;;19.19;65.52;94932.44;4200637;28;20184;-59
2022/06/18 01:05:54;;;;;;;9.70;7.63;;;;;;;19.26;65.12;94936.94;4194699;28;20053;-56
2022/06/18 01:07:58;;;;;;;8.60;7.57;;;;;;;19.28;65.13;94926.94;4192085;28;20428;-55
2022/06/18 01:10:02;;;;;;;8.85;7.80;;;;;;;19.32;64.59;94925.50;4211753;28;20480;-57
2022/06/18 01:12:04;;;;;;;11.35;7.15;;;;;;;19.33;64.40;94929.75;4206996;28;20194;-57
2022/06/18 01:14:08;;;;;;;9.10;6.85;;;;;;;19.25;64.25;94938.75;4204209;28;20048;-57
2022/06/18 01:16:11;;;;;;;9.15;6.35;;;;;;;19.22;64.27;94941.84;4202716;28;20113;-56
2022/06/18 01:18:13;;;;;;;12.38;7.30;;;;;;;19.20;64.39;94938.56;4206873;28;20044;-54
2022/06/18 01:20:15;;;;;;;7.68;6.88;;;;;;;19.16;64.40;94943.47;4207239;28;20563;-55
2022/06/18 01:22:41;;;;;;;8.32;7.10;;;;;;;19.14;64.52;94942.84;4216431;28;20062;-54
2022/06/18 01:24:44;;;;;;;9.13;7.13;;;;;;;19.13;64.47;94943.09;4204431;28;20098;-56
2022/06/18 01:26:47;;;;;;;7.30;6.47;;;;;;;19.07;64.53;94944.72;4206287;28;20052;-52
2022/06/18 01:28:49;;;;;;;8.90;6.88;;;;;;;18.98;64.68;94935.34;4216417;28;20044;-54
2022/06/18 01:30:51;;;;;;;9.05;6.78;;;;;;;18.99;64.77;94934.28;4207779;28;20492;-54
2022/06/18 01:32:54;;;;;;;7.88;6.18;;;;;;;19.00;64.81;94942.06;4191031;28;20071;-54
2022/06/18 01:34:55;;;;;;;8.35;6.80;;;;;;;19.04;64.58;94934.50;4210497;28;20092;-54
2022/06/18 01:37:01;;;;;;;7.85;6.60;;;;;;;19.01;64.32;94933.09;4205782;28;20125;-54
2022/06/18 01:39:06;;;;;;;7.38;6.30;;;;;;;18.94;64.75;94937.56;4217074;28;20488;-53
2022/06/18 01:43:35;;;;;;;10.73;6.40;;;;;;;18.95;64.51;94935.72;4202671;28;20501;-54
2022/06/18 01:45:38;;;;;;;8.63;6.97;;;;;;;18.99;64.30;94931.66;4199069;28;20096;-56
2022/06/18 01:47:43;;;;;;;8.85;6.18;;;;;;;18.97;64.23;94923.91;4214094;28;20051;-55
2022/06/18 01:50:10;;;;;;;9.27;6.63;;;;;;;18.98;64.14;94925.53;4210818;28;20040;-55
2022/06/18 01:52:12;;;;;;;11.45;6.63;;;;;;;18.95;64.38;94931.25;4200484;28;20536;-56
2022/06/18 01:54:26;;;;;;;7.57;6.32;;;;;;;18.87;64.35;94934.13;4208868;28;20044;-56
2022/06/18 01:56:38;;;;;;;10.48;6.82;;;;;;;18.82;64.78;94936.53;4201409;28;20384;-55
2022/06/18 01:58:47;;;;;;;7.55;6.75;;;;;;;18.76;64.98;94940.81;4200890;28;20044;-56
2022/06/18 02:00:52;;;;;;;8.50;7.10;;;;;;;18.70;65.33;94932.84;4194782;28;20112;-54
2022/06/18 02:02:54;;;;;;;8.00;7.20;;;;;;;18.67;65.55;94928.78;4203216;28;20477;-57
2022/06/18 02:04:56;;;;;;;8.50;6.97;;;;;;;18.65;65.31;94933.47;4202237;28;20048;-55
2022/06/18 02:06:58;;;;;;;8.77;6.80;;;;;;;18.64;65.42;94926.50;4212251;28;20054;-55
2022/06/18 02:09:03;;;;;;;11.88;7.30;;;;;;;18.66;65.42;94927.13;4226426;28;20100;-57
2022/06/18 02:11:06;;;;;;;7.68;6.90;;;;;;;18.26;66.95;94932.38;4220927;28;20055;-55
2022/06/18 02:13:09;;;;;;;8.57;7.45;;;;;;;17.95;67.73;94933.72;4215639;28;20048;-57
2022/06/18 02:15:26;;;;;;;12.25;7.20;;;;;;;17.99;68.00;94926.19;4206089;28;20052;-55
2022/06/18 02:17:28;;;;;;;8.93;7.18;;;;;;;18.12;67.64;94920.94;4203377;28;20167;-56
2022/06/18 02:19:33;;;;;;;7.68;6.88;;;;;;;18.28;66.84;94921.56;4210610;28;20142;-54
2022/06/18 02:21:38;;;;;;;9.80;7.22;;;;;;;18.35;66.54;94920.56;4209832;28;20052;-55
2022/06/18 02:23:40;;;;;;;8.80;6.85;;;;;;;18.44;66.25;94928.34;4209131;28;20413;-57
2022/06/18 02:25:42;;;;;;;7.85;7.05;;;;;;;18.51;65.93;94931.81;4202332;28;20049;-55
2022/06/18 02:27:44;;;;;;;9.77;7.63;;;;;;;18.56;65.91;94929.34;4207533;28;20109;-57
2022/06/18 02:29:46;;;;;;;8.90;7.30;;;;;;;18.63;65.84;94930.19;4208266;28;20043;-55
2022/06/18 02:31:48;;;;;;;8.35;6.60;;;;;;;18.63;65.42;94924.91;4201009;28;20054;-54
2022/06/18 02:33:56;;;;;;;8.63;7.07;;;;;;;18.63;65.11;94927.56;4215308;28;20331;-55
2022/06/18 02:36:01;;;;;;;7.40;6.50;;;;;;;18.59;65.01;94924.47;4206105;28;20139;-52
2022/06/18 02:38:20;;;;;;;10.30;6.63;;;;;;;18.58;64.98;94922.84;4209065;28;20056;-57
2022/06/18 02:40:26;;;;;;;9.32;6.60;;;;;;;18.58;64.99;94927.31;4201973;28;20807;-55
2022/06/18 02:42:31;;;;;;;9.45;6.72;;;;;;;18.54;64.73;94934.88;4209703;28;20106;-54
2022/06/18 02:44:33;;;;;;;9.73;6.60;;;;;;;18.48;64.88;94933.03;4208538;28;20044;-57
2022/06/18 02:46:35;;;;;;;8.40;6.53;;;;;;;18.52;65.01;94931.63;4207354;28;20113;-57
2022/06/18 02:48:37;;;;;;;8.07;6.65;;;;;;;18.50;64.91;94930.16;4223309;28;20055;-54
2022/06/18 02:50:41;;;;;;;7.22;6.45;;;;;;;18.45;64.90;94925.47;4208026;28;20052;-57
2022/06/18 02:52:54;;;;;;;7.38;6.32;;;;;;;18.46;64.95;94923.66;4208977;28;20578;-57
2022/06/18 02:55:19;;;;;;;10.75;6.47;;;;;;;18.46;64.79;94921.81;4208216;28;20056;-57
2022/06/18 02:57:24;;;;;;;10.88;6.55;;;;;;;18.48;64.30;94925.09;4196276;28;20200;-56
2022/06/18 02:59:26;;;;;;;7.88;6.18;;;;;;;18.45;64.49;94929.97;4201537;28;20113;-54
2022/06/18 03:01:29;;;;;;;6.38;5.78;;;;;;;18.46;64.31;94915.69;4196309;28;20059;-55
2022/06/18 03:03:33;;;;;;;7.78;6.18;;;;;;;18.39;64.43;94921.81;4220899;28;20044;-55
2022/06/18 03:05:35;;;;;;;8.27;6.18;;;;;;;18.38;64.60;94920.16;4194926;28;20052;-53
2022/06/18 03:07:37;;;;;;;10.40;6.32;;;;;;;18.38;64.57;94919.34;4208467;28;20122;-54
2022/06/18 03:12:06;;;;;;;8.98;6.60;;;;;;;18.37;64.38;94923.84;4207320;28;20121;-56
2022/06/18 03:12:09;;;;;;;7.15;5.75;;;;;;;18.44;64.00;94928.34;4206660;28;20052;-54
2022/06/18 03:14:13;;;;;;;6.07;5.40;;;;;;;18.35;64.31;94923.22;4199270;28;20113;-55
2022/06/18 03:16:18;;;;;;;9.02;6.00;;;;;;;18.32;64.18;94925.47;4191365;28;20040;-56
2022/06/18 03:18:22;;;;;;;7.72;6.00;;;;;;;18.36;64.17;94927.50;4200121;28;20044;-55
2022/06/18 03:20:37;;;;;;;8.00;5.93;;;;;;;18.44;63.93;94918.53;4207809;28;20071;-54
2022/06/18 03:22:39;;;;;;;10.70;5.80;;;;;;;18.46;63.78;94927.13;4208294;28;20109;-54
2022/06/18 03:24:41;;;;;;;7.38;5.43;;;;;;;18.48;63.63;94925.09;4209197;28;20432;-56
2022/06/18 03:26:43;;;;;;;6.00;5.32;;;;;;;18.52;63.36;94923.66;4206294;28;20059;-55
2022/06/18 03:28:49;;;;;;;7.18;5.68;;;;;;;18.54;63.47;94926.94;4197689;28;20048;-56
2022/06/18 03:30:50;;;;;;;7.32;5.65;;;;;;;18.55;63.28;94923.25;4207792;28;20424;-55
2022/06/18 03:32:52;;;;;;;6.93;5.20;;;;;;;18.59;63.14;94932.44;4209550;28;20055;-55
2022/06/18 03:34:54;;;;;;;6.05;4.97;;;;;;;18.55;63.03;94935.69;4207614;28;20044;-55
2022/06/18 03:36:58;;;;;;;6.00;5.40;;;;;;;18.47;63.24;94938.53;4194285;28;20127;-53
2022/06/18 03:39:00;;;;;;;7.50;6.07;;;;;;;18.47;63.33;94939.34;4204196;28;20562;-54
2022/06/18 03:41:02;;;;;;;8.60;5.90;;;;;;;18.50;63.60;94938.13;4200047;28;20067;-55
2022/06/18 03:43:04;;;;;;;7.55;5.32;;;;;;;18.50;63.41;94938.13;4198417;28;20205;-54
2022/06/18 03:45:06;;;;;;;8.48;5.50;;;;;;;18.56;63.21;94937.31;4204059;28;20044;-57
2022/06/18 03:47:07;;;;;;;9.60;5.55;;;;;;;18.39;63.80;94939.53;4208730;28;20164;-55
2022/06/18 03:49:19;;;;;;;10.32;6.18;;;;;;;18.45;63.93;94951.19;4209163;28;20386;-55
2022/06/18 03:51:21;;;;;;;7.75;6.20;;;;;;;18.37;63.99;94945.06;4198417;28;20133;-55
2022/06/18 03:53:23;;;;;;;6.90;5.72;;;;;;;18.21;64.33;94948.88;4204168;28;20418;-52
2022/06/18 03:55:25;;;;;;;11.55;6.20;;;;;;;18.36;64.15;94950.56;4208152;28;20043;-54
2022/06/18 03:57:27;;;;;;;8.50;5.25;;;;;;;18.48;63.48;94950.81;4208372;28;20486;-55
2022/06/18 03:59:29;;;;;;;8.40;5.50;;;;;;;18.60;62.97;94944.66;4201444;28;20144;-56
2022/06/18 04:01:33;;;;;;;8.57;5.85;;;;;;;18.72;62.65;94950.19;4207208;28;20052;-54
2022/06/18 04:03:35;;;;;;;6.07;5.15;;;;;;;18.78;62.46;94945.97;4222493;28;20059;-55
2022/06/18 04:05:39;;;;;;;7.35;5.53;;;;;;;18.73;62.36;94948.38;4212302;28;20131;-54
2022/06/18 04:07:42;;;;;;;6.80;4.93;;;;;;;18.79;62.27;94945.75;4218593;28;20052;-54
2022/06/18 04:09:44;;;;;;;7.65;5.75;;;;;;;18.87;61.97;94943.91;4207501;28;20148;-55
2022/06/18 04:11:45;;;;;;;5.55;5.00;;;;;;;18.89;61.68;94941.88;4208167;28;20553;-56
2022/06/18 04:13:47;;;;;;;6.75;5.25;;;;;;;18.92;61.72;94947.56;4193611;28;20048;-57
2022/06/18 04:15:49;;;;;;;9.90;5.35;;;;;;;18.97;61.62;94953.09;4220709;28;20047;-55
2022/06/18 04:17:50;;;;;;;7.45;4.72;;;;;;;19.05;61.39;94949.41;4204942;28;20051;-56
2022/06/18 04:19:52;;;;;;;5.80;5.07;;;;;;;19.07;61.13;94949.22;4204469;28;20105;-54
2022/06/18 04:21:54;;;;;;;8.20;5.30;;;;;;;18.88;61.27;94950.84;4213438;28;20100;-56
2022/06/18 04:23:56;;;;;;;5.28;4.68;;;;;;;18.90;61.88;94951.47;4225467;28;20100;-55
2022/06/18 04:25:58;;;;;;;10.00;5.70;;;;;;;19.00;61.87;94957.19;4211997;28;20052;-54
2022/06/18 04:27:59;;;;;;;7.85;5.38;;;;;;;18.98;61.56;94957.38;4207957;28;20561;-56
2022/06/18 04:30:01;;;;;;;6.18;5.30;;;;;;;18.93;61.76;94956.34;4206995;28;20044;-55
2022/06/18 04:32:04;;;;;;;5.20;4.70;;;;;;;19.04;61.70;94955.75;4207849;28;20147;-57
2022/06/18 04:34:06;;;;;;;5.37;4.70;;;;;;;18.85;62.04;94961.88;4208999;28;20044;-56
2022/06/18 04:36:18;;;;;;;5.80;4.82;;;;;;;18.87;61.64;94959.84;4196738;28;20514;-54
2022/06/18 04:38:21;;;;;;;6.55;4.63;;;;;;;18.97;61.20;94946.97;4210190;28;20554;-55
2022/06/18 04:40:31;;;;;;;5.20;4.43;;;;;;;19.01;61.03;94950.84;4223538;28;20047;-55
2022/06/18 04:42:53;;;;;;;5.53;4.88;;;;;;;19.03;60.80;94948.78;4213353;27;20078;-55
2022/06/18 04:44:55;;;;;;;6.85;4.97;;;;;;;19.14;61.06;94948.16;4205461;28;20329;-57
2022/06/18 04:46:57;;;;;;;6.18;4.72;;;;;;;19.18;60.42;94957.34;4208345;28;20056;-53
2022/06/18 04:48:59;;;;;;;6.72;4.60;;;;;;;19.29;60.46;94952.44;4214483;28;20052;-56
2022/06/18 04:51:00;;;;;;;7.97;5.03;;;;;;;19.38;60.01;94952.03;4216830;28;20055;-55
2022/06/18 04:53:03;;;;;;;5.72;4.57;;;;;;;19.43;60.06;94949.56;4207881;28;20524;-57
2022/06/18 04:55:05;;;;;;;5.50;4.28;;;;;;;19.48;60.00;94956.91;4202887;28;20055;-56
2022/06/18 04:57:07;;;;;;;6.47;4.78;;;;;;;19.48;59.62;94956.91;4203091;28;20126;-57
2022/06/18 04:59:09;;;;;;;7.05;4.93;;;;;;;19.51;59.71;94955.66;4204779;28;20120;-56
2022/06/18 05:01:17;;;;;;;5.23;4.63;;;;;;;19.64;59.46;94951.16;4205690;28;20121;-55
2022/06/18 05:03:21;;;;;;;5.03;4.47;;;;;;;19.76;59.31;94961.16;4220801;28;20280;-55
2022/06/18 05:05:25;;;;;;;7.47;5.82;;;;;;;19.57;58.73;94955.66;4209137;28;20410;-55
2022/06/18 05:07:28;;;;;;;6.53;5.05;;;;;;;19.50;59.33;94960.19;4208058;28;20536;-55
2022/06/18 05:09:29;;;;;;;8.35;4.38;;;;;;;19.57;59.16;94953.00;4208570;28;20056;-54
2022/06/18 05:11:31;;;;;;;6.35;4.65;;;;;;;19.64;59.08;94956.47;4210715;28;20059;-55
2022/06/18 05:13:33;;;;;;;7.32;4.50;;;;;;;19.79;58.75;94950.13;4208771;28;20121;-54
2022/06/18 05:15:35;;;;;;;5.22;4.47;;;;;;;19.83;58.46;94956.63;4214607;28;20048;-56
2022/06/18 05:17:37;;;;;;;7.40;4.38;;;;;;;19.97;58.23;94957.41;4209423;28;20060;-54
2022/06/18 05:19:42;;;;;;;5.53;4.40;;;;;;;20.07;57.80;94960.44;4199232;28;20048;-55
2022/06/18 05:21:43;;;;;;;5.55;4.32;;;;;;;20.07;58.14;94964.91;4204796;28;20144;-56
2022/06/18 05:23:45;;;;;;;5.40;4.18;;;;;;;20.08;57.91;94961.25;4222184;28;20154;-54
2022/06/18 05:25:48;;;;;;;5.30;4.72;;;;;;;20.13;57.78;94964.06;4211559;28;20070;-56
2022/06/18 05:27:50;;;;;;;6.95;4.40;;;;;;;20.18;57.71;94967.75;4210238;28;20495;-57
2022/06/18 05:29:53;;;;;;;6.22;4.60;;;;;;;20.23;57.95;94967.91;4208752;28;20239;-56
2022/06/18 05:31:54;;;;;;;7.45;4.40;;;;;;;20.16;57.55;94963.69;4214665;28;20158;-54
2022/06/18 05:33:56;;;;;;;5.95;4.45;;;;;;;20.20;57.72;94970.19;4221835;28;20455;-55
2022/06/18 05:35:58;;;;;;;9.77;4.30;;;;;;;20.28;57.91;94966.47;4209700;28;20418;-54
2022/06/18 05:37:59;;;;;;;4.75;4.10;;;;;;;20.41;57.37;94963.72;4211280;28;20110;-53
2022/06/18 05:40:03;;;;;;;6.50;4.80;;;;;;;20.40;57.69;94970.09;4225037;28;20564;-56
2022/06/18 05:42:04;;;;;;;7.00;4.78;;;;;;;20.46;57.43;94970.06;4196802;28;20455;-53
2022/06/18 05:44:06;;;;;;;6.80;4.68;;;;;;;20.46;57.63;94964.72;4211411;28;20078;-55
2022/06/18 05:46:11;;;;;;;5.88;4.85;;;;;;;20.43;58.08;94973.16;4209923;28;20116;-55
2022/06/18 05:48:13;;;;;;;5.95;4.60;;;;;;;20.31;57.88;94971.38;4211069;28;20464;-56
2022/06/18 05:50:18;;;;;;;5.18;4.55;;;;;;;20.39;58.08;94971.09;4224962;28;20052;-56
2022/06/18 05:52:20;;;;;;;7.82;4.72;;;;;;;20.19;58.41;94980.00;4196656;28;20904;-55
2022/06/18 05:54:21;;;;;;;6.72;4.95;;;;;;;20.16;59.03;94969.00;4217004;28;20124;-55
2022/06/18 05:56:24;;;;;;;6.45;4.63;;;;;;;19.84;59.92;94976.88;4215292;28;20347;-55
2022/06/18 05:58:26;;;;;;;7.15;4.53;;;;;;;19.36;60.25;94969.19;4203353;28;20041;-55
2022/06/18 06:00:34;;;;;;;5.80;4.93;;;;;;;19.30;61.32;94976.16;4194503;28;20060;-55
2022/06/18 06:02:36;;;;;;;9.13;5.40;;;;;;;19.05;61.90;94973.31;4211250;28;20467;-55
2022/06/18 06:04:39;;;;;;;6.22;4.57;;;;;;;19.03;61.86;94975.34;4219386;28;20437;-55
2022/06/18 06:06:41;;;;;;;;;;;;;;;18.97;62.50;94976.16;4228379;28;20079;-52
2022/06/18 06:08:42;;;;;;;11.15;5.55;;;;;;;19.10;62.26;94978.00;4211805;28;20022;-53
2022/06/18 06:13:04;;;;;;;6.03;4.85;;;;;;;19.78;59.74;94980.38;4219936;28;20112;-58
2022/06/18 06:15:07;;;;;;;7.30;4.80;;;;;;;20.05;58.76;94981.09;4221059;28;20043;-55
2022/06/18 06:17:13;;;;;;;8.30;5.43;;;;;;;20.19;58.49;94981.84;4201477;28;20056;-56
2022/06/18 06:19:15;;;;;;;6.22;4.90;;;;;;;19.94;58.60;94979.91;4206073;28;20117;-56
2022/06/18 06:21:18;;;;;;;8.35;4.85;;;;;;;19.75;59.45;94984.28;4202160;28;20047;-55
2022/06/18 06:23:20;;;;;;;6.10;4.45;;;;;;;19.81;59.13;94977.28;4205362;28;20052;-57
2022/06/18 06:25:22;;;;;;;9.05;4.47;;;;;;;19.84;59.07;94977.69;4209713;28;20044;-55
2022/06/18 06:27:23;;;;;;;7.85;4.97;;;;;;;20.10;58.48;94980.47;4203149;28;20053;-55
2022/06/18 06:29:25;;;;;;;5.53;4.60;;;;;;;20.39;57.77;94974.59;4219282;28;20564;-54
2022/06/18 06:31:27;;;;;;;7.97;4.82;;;;;;;20.11;58.09;94972.28;4212328;28;20354;-53
2022/06/18 06:33:29;;;;;;;6.03;4.25;;;;;;;20.18;58.02;94964.28;4214709;28;20109;-52
2022/06/18 06:35:30;;;;;;;9.90;4.53;;;;;;;20.46;57.55;94971.91;4208212;28;20040;-58
2022/06/18 06:37:32;;;;;;;4.93;4.30;;;;;;;20.61;55.99;94974.31;4202608;28;20045;-55
2022/06/18 06:39:34;;;;;;;6.00;4.43;;;;;;;20.65;55.95;94986.16;4209106;28;20294;-53
2022/06/18 06:41:35;;;;;;;7.55;4.45;;;;;;;20.74;55.90;94986.72;4207581;28;20048;-54
2022/06/18 06:43:37;;;;;;;5.68;4.65;;;;;;;20.70;56.30;94983.66;4201143;28;20100;-54
2022/06/18 06:45:39;;;;;;;7.18;4.20;;;;;;;20.72;54.48;94986.09;4197081;28;20128;-58
2022/06/18 06:47:41;;;;;;;4.43;3.97;;;;;;;20.76;54.48;94982.78;4208514;28;20101;-56
2022/06/18 06:49:42;;;;;;;7.78;4.47;;;;;;;20.64;56.27;94992.50;4211257;28;20043;-55
2022/06/18 06:51:44;;;;;;;5.70;4.80;;;;;;;20.72;56.63;94984.25;4210395;28;20108;-55
2022/06/18 06:53:46;;;;;;;6.18;4.57;;;;;;;20.79;56.48;94990.34;4209552;28;20549;-54
2022/06/18 06:58:09;;;;;;;6.00;4.45;;;;;;;21.20;54.99;94974.88;4214782;28;20052;-55
2022/06/18 07:00:12;;;;;;;5.97;4.50;;;;;;;21.44;54.36;94978.56;4212724;28;20091;-57
2022/06/18 07:02:19;;;;;;;5.85;4.47;;;;;;;21.39;52.89;94989.06;4215262;28;20644;-58
2022/06/18 07:04:21;;;;;;;6.65;3.78;;;;;;;21.12;52.55;94980.47;4218855;28;20144;-54
2022/06/18 07:06:23;;;;;;;7.47;3.55;;;;;;;21.17;52.75;94984.13;4205822;28;20048;-55
2022/06/18 07:08:25;;;;;;;4.78;3.45;;;;;;;21.10;52.61;94982.53;4207395;28;20041;-56
2022/06/18 07:10:27;;;;;;;6.38;4.05;;;;;;;21.08;52.11;94972.13;4217851;28;20432;-55
2022/06/18 07:12:28;;;;;;;5.00;3.53;;;;;;;21.00;52.13;94975.84;4213018;28;20188;-55
2022/06/18 07:14:30;;;;;;;4.85;3.70;;;;;;;21.20;52.51;94975.69;4217266;28;20044;-56
2022/06/18 07:16:32;;;;;;;5.70;4.30;;;;;;;21.52;52.09;94970.31;4208271;28;20077;-56
2022/06/18 07:18:35;;;;;;;8.98;4.68;;;;;;;21.81;51.41;94971.44;4211661;28;20059;-55
2022/06/18 07:20:37;;;;;;;16.30;6.65;;;;;;;21.88;49.97;94977.50;4205216;28;20406;-57
2022/06/18 07:22:39;;;;;;;7.15;4.18;;;;;;;21.59;49.76;94978.22;4203089;28;20044;-59
2022/06/18 07:24:40;;;;;;;4.97;3.75;;;;;;;21.57;50.30;94975.78;4209173;28;20455;-58
2022/06/18 07:26:42;;;;;;;5.82;3.78;;;;;;;21.71;48.78;94973.00;4209486;28;20503;-58
2022/06/18 07:28:44;;;;;;;4.88;3.30;;;;;;;21.90;48.58;94969.28;4209515;28;20044;-55
2022/06/18 07:30:46;;;;;;;7.93;3.90;;;;;;;22.14;48.18;94970.22;4200960;28;20397;-58
2022/06/18 07:32:49;;;;;;;4.72;3.40;;;;;;;22.32;47.57;94966.72;4202547;28;20157;-54
2022/06/18 07:34:53;;;;;;;4.43;3.50;;;;;;;22.59;47.68;94974.41;4197231;28;20135;-56
2022/06/18 07:36:55;;;;;;;7.38;3.75;;;;;;;22.43;48.76;94975.84;4206579;28;20447;-54
2022/06/18 07:38:57;;;;;;;5.13;3.72;;;;;;;22.48;48.61;94979.47;4192303;28;20117;-57
2022/06/18 07:40:59;;;;;;;6.90;4.20;;;;;;;22.17;49.36;94969.75;4192498;28;20049;-54
2022/06/18 07:43:01;;;;;;;5.22;4.50;;;;;;;22.17;50.02;94963.63;4217841;28;20075;-55
2022/06/18 07:45:05;;;;;;;4.88;3.90;;;;;;;21.89;49.15;94968.44;4194311;28;20464;-55
2022/06/18 07:47:06;;;;;;;;;;;;;;;21.90;49.47;94963.97;4210084;28;20077;-56
2022/06/18 07:49:08;;;;;;;8.52;3.92;;;;;;;22.02;48.87;94969.34;4208488;28;20350;-55
2022/06/18 07:51:10;;;;;;;6.53;3.70;;;;;;;22.26;47.73;94963.13;4210303;28;20063;-55
2022/06/18 07:53:17;;;;;;;7.55;4.20;;;;;;;22.22;47.48;94967.28;4200494;28;20078;-55
2022/06/18 07:55:22;;;;;;;4.85;3.70;;;;;;;22.11;48.36;94972.53;4206790;28;20504;-56
2022/06/18 07:57:24;;;;;;;6.53;3.70;;;;;;;22.33;48.09;94963.03;4208427;28;20374;-56
2022/06/18 07:59:26;;;;;;;5.47;4.47;;;;;;;22.59;47.72;94966.38;4201688;28;20112;-55
2022/06/18 08:01:28;;;;;;;5.60;4.22;;;;;;;22.76;47.04;94966.53;4206615;28;20052;-57
2022/06/18 08:03:30;;;;;;;7.05;3.85;;;;;;;22.94;46.49;94968.34;4209177;28;20148;-55
2022/06/18 08:05:32;;;;;;;5.50;3.80;;;;;;;22.93;46.66;94961.34;4206109;28;20056;-54
2022/06/18 08:07:34;;;;;;;5.03;3.88;;;;;;;22.94;45.79;94968.34;4196347;28;20259;-54
2022/06/18 08:09:38;;;;;;;4.50;3.63;;;;;;;23.03;45.39;94966.97;4200909;28;20044;-54
2022/06/18 08:11:40;;;;;;;4.37;3.60;;;;;;;23.25;45.29;94960.03;4202602;28;20113;-55
2022/06/18 08:13:42;;;;;;;5.15;3.95;;;;;;;;;;4207532;28;20117;-56
2022/06/18 08:15:43;;;;;;;6.50;3.70;;;;;;;23.42;45.03;94964.69;4210228;28;20058;-55
2022/06/18 08:17:45;;;;;;;5.43;3.65;;;;;;;23.57;44.66;94962.34;4206912;28;20059;-56
2022/06/18 08:20:08;;;;;;;9.43;4.10;;;;;;;23.77;44.75;94962.03;4215042;28;20044;-57
2022/06/18 08:22:10;;;;;;;10.10;4.33;;;;;;;23.95;44.40;94963.72;4201575;28;20052;-55
2022/06/18 08:24:17;;;;;;;6.25;3.92;;;;;;;24.16;44.00;94962.28;4204862;28;20280;-56
2022/06/18 08:26:20;;;;;;;8.10;4.80;;;;;;;24.33;43.47;94965.03;4190276;28;20103;-57
2022/06/18 08:28:21;;;;;;;7.05;4.30;;;;;;;24.48;43.23;94959.16;4203046;28;20049;-57
2022/06/18 08:30:24;;;;;;;7.70;4.28;;;;;;;24.23;44.00;94962.16;4211074;28;20496;-55
2022/06/18 08:32:26;;;;;;;7.07;4.20;;;;;;;23.95;44.22;94958.38;4214393;28;20176;-54
2022/06/18 08:34:28;;;;;;;5.80;3.83;;;;;;;23.88;44.81;94961.19;4205820;28;20052;-55
2022/06/18 08:36:32;;;;;;;8.52;4.25;;;;;;;23.50;45.04;94967.81;4213925;28;20375;-54
2022/06/18 08:38:34;;;;;;;4.97;3.35;;;;;;;23.04;45.58;94969.44;4200159;28;20535;-54
2022/06/18 08:41:09;;;;;;;4.60;3.70;;;;;;;22.63;46.28;94972.91;4206328;28;20551;-55
2022/06/18 08:43:25;;;;;;;10.30;4.00;;;;;;;22.67;46.48;94958.88;4203961;28;20048;-51
2022/06/18 08:45:32;;;;;;;5.70;3.45;;;;;;;23.06;46.33;94955.84;4207077;28;20471;-55
2022/06/18 08:48:10;;;;;;;5.40;3.58;;;;;;;23.49;45.78;94954.69;4205659;28;20113;-55
2022/06/18 08:50:19;;;;;;;6.90;3.58;;;;;;;23.51;46.29;94949.91;4204317;28;20059;-55
2022/06/18 08:52:53;;;;;;;5.70;3.60;;;;;;;23.96;46.50;94945.81;4201678;28;20044;-54
2022/06/18 08:55:13;;;;;;;3.67;3.00;;;;;;;24.11;44.91;94951.47;4199383;28;20052;-55
2022/06/18 08:57:39;;;;;;;5.45;3.90;;;;;;;24.13;43.69;94938.66;4196019;28;20277;-57
2022/06/18 09:00:07;;;;;;;7.95;3.55;;;;;;;23.83;45.41;94938.84;4219491;28;20082;-56
2022/06/18 09:02:23;;;;;;;5.82;3.70;;;;;;;23.29;45.96;94950.50;4176532;28;20064;-55
2022/06/18 09:04:30;;;;;;;8.23;3.70;;;;;;;22.87;45.88;94947.88;4203907;28;20056;-54
2022/06/18 09:06:53;;;;;;;4.10;3.53;;;;;;;22.73;47.16;94949.13;4216374;28;20337;-55
2022/06/18 09:09:25;;;;;;;4.32;3.60;;;;;;;22.74;47.33;94947.28;4207599;28;20055;-57
2022/06/18 09:11:55;;;;;;;5.82;3.55;;;;;;;22.66;47.16;94940.41;4206452;28;20090;-56
2022/06/18 09:14:27;;;;;;;6.20;4.15;;;;;;;22.37;48.09;94944.69;4219072;28;20105;-57
2022/06/18 09:16:34;;;;;;;7.10;3.35;;;;;;;22.24;47.44;94937.69;4212014;28;20048;-54
2022/06/18 09:18:37;;;;;;;7.07;3.72;;;;;;;22.20;47.93;94931.97;4207025;28;20446;-55
2022/06/18 09:20:48;;;;;;;4.38;3.70;;;;;;;22.39;47.36;94934.63;4205854;28;20048;-55
2022/06/18 09:22:56;;;;;;;6.07;3.42;;;;;;;22.44;47.45;94934.75;4213386;28;20726;-56
2022/06/18 09:25:18;;;;;;;5.47;3.90;;;;;;;22.61;47.48;94927.72;4199995;28;20052;-53
2022/06/18 09:27:24;;;;;;;5.45;4.00;;;;;;;22.48;47.42;94934.09;4207528;28;20229;-58
2022/06/18 09:29:45;;;;;;;4.90;3.78;;;;;;;22.45;47.39;94941.72;4208353;28;20056;-55
2022/06/18 09:31:53;;;;;;;7.22;3.92;;;;;;;22.35;47.31;94939.63;4220341;28;20044;-53
2022/06/18 09:34:00;;;;;;;6.10;4.32;;;;;;;22.30;47.53;94939.47;4205867;28;20079;-52
2022/06/18 09:36:19;;;;;;;4.75;3.42;;;;;;;22.35;47.58;94938.78;4204966;28;20048;-54
2022/06/18 09:38:42;;;;;;;6.07;4.30;;;;;;;22.38;47.38;94947.16;4194469;28;20070;-53
2022/06/18 09:41:22;;;;;;;8.05;4.18;;;;;;;22.37;47.63;94936.69;4196032;28;20129;-53
2022/06/18 09:43:45;;;;;;;6.05;3.90;;;;;;;22.29;48.28;94941.31;4195311;28;20044;-55
2022/06/18 09:45:51;;;;;;;4.93;3.97;;;;;;;22.43;48.68;94947.28;4188654;28;20568;-55
2022/06/18 09:47:53;;;;;;;5.25;4.03;;;;;;;22.61;48.56;94945.63;4199379;28;20079;-56
2022/06/18 09:49:55;;;;;;;6.80;3.92;;;;;;;22.81;48.03;94940.78;4208028;28;20466;-56
2022/06/18 09:52:25;;;;;;;4.85;3.38;;;;;;;22.74;45.58;94942.75;4206316;28;20044;-54
2022/06/18 09:54:29;;;;;;;6.95;4.10;;;;;;;22.61;46.49;94948.28;4200379;28;20583;-53
2022/06/18 09:56:35;;;;;;;10.65;3.95;;;;;;;22.84;46.70;94950.19;4208337;28;20056;-56
2022/06/18 09:58:59;;;;;;;7.35;3.83;;;;;;;23.17;46.85;94946.22;4216340;28;20462;-55
2022/06/18 10:01:01;;;;;;;6.75;4.47;;;;;;;23.41;45.77;94942.47;4198076;28;20052;-56